CRC2 weather

Fredericton (RCMP) Heliport
Fredericton, New Brunswick, Canada

Public forecast

Using degrees Celsius for public forecast. Weather courtesy of forecast.io.

Closest aviation weather report (METAR) to Fredericton (RCMP) Heliport

Closest report is Fredericton Airport, 6.6 nm (12.2 km) SE. Retrieved 2020/06/02 14:00 UTC (1 hour ago):

CYFC 021400Z AUTO 29012G20KT 260V340 9SM CLR 13/M02 A2985 RMK SLP110

Closest aviation forecast (TAF) to Fredericton (RCMP) Heliport

Closest forecast is Fredericton Airport, 6.6 nm (12.2 km) SE. Retrieved 2020/06/02 12:33 UTC (2 hours ago):

TAF CYFC 021130Z 0212/0224 30010KT P6SM SCT250 FM021500 32015KT P6SM SCT060 BKN230 BECMG 0222/0224 30008KT RMK FCST BASED ON AUTO OBS NXT FCST BY 021800Z